Time;durP1;ratioP1;P1;durP2;ratioP2;P2;SDS_P1;SDS_P2;PMS_P1;PMS_P2;Temp;Humidity;BMP_temperature;BMP_pressure;BME280_temperature;BME280_humidity;BME280_pressure;Samples;Min_cycle;Max_cycle;Signal;HPM_P1;HPM_P2
2022/08/29 00:00:18;;;;;;;20.55;13.75;;;;;;;14.09;100.00;96131.53;1035163;28;20095;-68
2022/08/29 00:00:48;;;;;;;25.40;14.32;;;;;;;14.12;100.00;96142.31;1030786;28;20030;-68
2022/08/29 00:01:20;;;;;;;20.75;14.07;;;;;;;14.11;100.00;96143.38;1026669;28;20026;-70
2022/08/29 00:01:50;;;;;;;19.23;14.30;;;;;;;14.10;100.00;96147.06;1026743;28;20023;-69
2022/08/29 00:02:21;;;;;;;30.20;14.65;;;;;;;14.13;100.00;96145.75;1023033;28;20058;-69
2022/08/29 00:02:53;;;;;;;26.55;14.25;;;;;;;14.11;100.00;96147.88;1022859;28;20035;-68
2022/08/29 00:03:23;;;;;;;19.25;13.48;;;;;;;14.10;100.00;96147.06;1026830;28;20204;-68
2022/08/29 00:03:54;;;;;;;21.48;13.65;;;;;;;14.10;100.00;96141.03;1034212;28;20030;-69
2022/08/29 00:04:25;;;;;;;22.02;14.23;;;;;;;14.09;100.00;96144.72;1038905;28;20037;-68
2022/08/29 00:04:55;;;;;;;19.13;13.55;;;;;;;14.08;100.00;96145.78;1041371;28;20025;-69
2022/08/29 00:05:30;;;;;;;17.98;13.68;;;;;;;14.05;100.00;96143.69;1039022;28;20028;-70
2022/08/29 00:06:01;;;;;;;20.92;14.40;;;;;;;14.05;100.00;96143.69;1034884;28;20081;-68
2022/08/29 00:06:32;;;;;;;21.83;14.07;;;;;;;14.06;100.00;96147.91;1031435;28;20114;-69
2022/08/29 00:07:02;;;;;;;21.15;14.35;;;;;;;14.06;100.00;96150.56;1034656;28;20276;-68
2022/08/29 00:07:33;;;;;;;20.63;14.32;;;;;;;14.07;100.00;96146.84;1031593;28;20045;-69
2022/08/29 00:08:03;;;;;;;20.70;14.55;;;;;;;14.05;100.00;96139.22;1034103;28;20096;-69
2022/08/29 00:08:34;;;;;;;23.05;15.02;;;;;;;13.99;100.00;96126.31;1030920;28;20052;-68
2022/08/29 00:09:04;;;;;;;20.17;13.85;;;;;;;14.06;100.00;96140.00;1030147;28;20023;-69
2022/08/29 00:09:35;;;;;;;21.40;14.98;;;;;;;14.07;100.00;96146.84;1030670;28;20566;-69
2022/08/29 00:10:06;;;;;;;23.83;15.98;;;;;;;14.04;100.00;96139.47;1033950;28;20030;-69
2022/08/29 00:10:37;;;;;;;21.90;15.60;;;;;;;13.97;100.00;96131.88;1026615;28;20034;-69
2022/08/29 00:11:07;;;;;;;22.48;14.68;;;;;;;14.02;100.00;96144.25;1038683;28;20459;-68
2022/08/29 00:11:37;;;;;;;21.05;15.27;;;;;;;14.03;100.00;96145.81;1034596;28;20025;-72
2022/08/29 00:12:08;;;;;;;19.42;13.80;;;;;;;14.03;100.00;96151.09;1039944;28;20036;-69
2022/08/29 00:12:38;;;;;;;20.88;15.27;;;;;;;14.02;100.00;96144.25;1035971;28;20480;-68
2022/08/29 00:13:09;;;;;;;20.25;15.07;;;;;;;14.02;100.00;96144.25;1035735;28;20076;-69
2022/08/29 00:13:40;;;;;;;21.25;15.32;;;;;;;13.99;100.00;96139.53;1027601;28;20575;-69
2022/08/29 00:14:10;;;;;;;19.98;14.68;;;;;;;14.00;100.00;96143.72;1023513;29;20062;-69
2022/08/29 00:14:40;;;;;;;18.55;14.13;;;;;;;13.99;100.00;96145.59;1027234;28;20058;-68
2022/08/29 00:15:11;;;;;;;20.27;14.57;;;;;;;13.98;100.00;96143.19;1029737;28;20034;-70
2022/08/29 00:15:42;;;;;;;16.65;13.43;;;;;;;13.97;100.00;96147.69;1031022;28;20034;-68
2022/08/29 00:16:12;;;;;;;18.90;13.95;;;;;;;13.91;100.00;96139.00;1039154;28;20409;-69
2022/08/29 00:16:43;;;;;;;18.08;13.73;;;;;;;13.93;100.00;96140.59;1036846;28;20553;-69
2022/08/29 00:17:14;;;;;;;22.25;14.40;;;;;;;13.98;100.00;96151.13;1034814;28;20104;-69
2022/08/29 00:17:44;;;;;;;18.88;14.48;;;;;;;13.96;100.00;96142.69;1034623;28;20026;-70
2022/08/29 00:18:16;;;;;;;19.83;14.50;;;;;;;13.93;100.00;96132.69;1031262;28;20034;-69
2022/08/29 00:18:46;;;;;;;22.75;14.65;;;;;;;13.94;100.00;96139.53;1026810;28;20113;-68
2022/08/29 00:19:16;;;;;;;21.40;15.02;;;;;;;13.96;100.00;96140.06;1029873;28;20054;-70
2022/08/29 00:19:47;;;;;;;24.23;16.70;;;;;;;13.95;100.00;96139.28;1026744;28;20034;-69
2022/08/29 00:20:20;;;;;;;21.60;14.63;;;;;;;13.96;100.00;96142.69;1030664;28;20045;-69
2022/08/29 00:20:51;;;;;;;116.82;24.35;;;;;;;13.97;100.00;96141.63;1038943;28;20498;-69
2022/08/29 00:21:21;;;;;;;66.22;18.55;;;;;;;13.89;100.00;96135.88;1039263;28;20383;-69
2022/08/29 00:21:52;;;;;;;51.10;16.98;;;;;;;13.94;100.00;96139.53;1030755;28;20034;-69
2022/08/29 00:22:23;;;;;;;46.28;17.95;;;;;;;13.94;100.00;96142.19;1034769;28;20026;-68
2022/08/29 00:22:53;;;;;;;31.63;16.05;;;;;;;13.89;100.00;96135.88;1030639;28;20631;-68
2022/08/29 00:23:24;;;;;;;54.80;17.08;;;;;;;13.95;100.00;96143.75;1034789;28;20030;-68
2022/08/29 00:23:55;;;;;;;28.42;15.38;;;;;;;13.94;100.00;96147.44;1034492;28;20037;-69
2022/08/29 00:24:26;;;;;;;29.70;16.00;;;;;;;13.92;100.00;96139.81;1030601;28;20058;-68
2022/08/29 00:25:01;;;;;;;27.30;15.60;;;;;;;13.93;100.00;96149.31;1030746;28;20024;-69
2022/08/29 00:25:32;;;;;;;29.65;15.30;;;;;;;13.92;100.00;96150.38;1031478;28;20369;-69
2022/08/29 00:26:02;;;;;;;27.92;14.45;;;;;;;13.93;100.00;96148.53;1028069;28;20027;-68
2022/08/29 00:26:34;;;;;;;30.70;14.73;;;;;;;13.89;100.00;96141.16;1035648;28;20125;-69
2022/08/29 00:27:04;;;;;;;28.08;16.05;;;;;;;13.91;100.00;96154.84;1026516;28;20528;-69
2022/08/29 00:27:35;;;;;;;29.52;16.45;;;;;;;13.91;100.00;96146.16;1018946;29;20067;-68
2022/08/29 00:28:05;;;;;;;20.48;15.20;;;;;;;13.90;100.00;96142.72;1022531;29;20031;-69
2022/08/29 00:28:36;;;;;;;24.13;15.35;;;;;;;13.90;100.00;96145.34;1024383;28;20035;-69
2022/08/29 00:29:06;;;;;;;30.55;18.27;;;;;;;13.87;100.00;96145.91;1030217;28;20129;-68
2022/08/29 00:29:37;;;;;;;27.85;16.75;;;;;;;13.91;100.00;96152.19;1034729;28;20037;-69
2022/08/29 00:30:08;;;;;;;34.38;17.20;;;;;;;13.83;100.00;96136.19;1026455;28;20053;-68
2022/08/29 00:30:38;;;;;;;25.63;17.45;;;;;;;13.91;100.00;96146.94;1026799;28;20078;-68
2022/08/29 00:31:09;;;;;;;27.40;17.00;;;;;;;13.89;100.00;96145.66;1030634;28;20527;-69
2022/08/29 00:31:39;;;;;;;22.85;17.13;;;;;;;13.89;100.00;96146.44;1026897;28;20034;-69
2022/08/29 00:32:09;;;;;;;24.10;17.77;;;;;;;13.89;100.00;96146.44;1029478;28;20064;-69
2022/08/29 00:32:40;;;;;;;24.35;17.40;;;;;;;13.90;100.00;96147.22;1030737;28;20057;-69
2022/08/29 00:33:10;;;;;;;29.33;18.08;;;;;;;13.89;100.00;96151.72;1030797;28;20068;-71
2022/08/29 00:33:41;;;;;;;25.38;17.17;;;;;;;13.89;100.00;96156.19;1034756;28;20030;-69
2022/08/29 00:34:12;;;;;;;27.83;17.73;;;;;;;13.88;100.00;96152.78;1034648;28;20524;-68
2022/08/29 00:34:42;;;;;;;33.25;19.48;;;;;;;13.72;100.00;96124.91;1034762;28;20034;-68
2022/08/29 00:35:16;;;;;;;29.27;18.90;;;;;;;13.88;100.00;96149.31;1034637;28;20034;-68
2022/08/29 00:35:46;;;;;;;36.60;20.20;;;;;;;13.86;100.00;96152.25;1023117;28;20588;-69
2022/08/29 00:36:17;;;;;;;29.20;19.88;;;;;;;13.81;100.00;96144.34;1030489;28;20105;-69
2022/08/29 00:36:47;;;;;;;31.33;17.95;;;;;;;13.88;100.00;96158.06;1030740;28;20033;-68
2022/08/29 00:37:18;;;;;;;29.40;19.45;;;;;;;13.90;100.00;96149.84;1026542;28;20027;-69
2022/08/29 00:37:50;;;;;;;28.73;18.95;;;;;;;13.91;100.00;96154.84;1026675;28;20696;-69
2022/08/29 00:38:21;;;;;;;30.67;19.92;;;;;;;13.92;100.00;96155.66;1034890;28;20042;-69
2022/08/29 00:38:51;;;;;;;36.05;23.15;;;;;;;13.94;100.00;96150.09;1035077;28;20594;-69
2022/08/29 00:39:22;;;;;;;38.05;22.85;;;;;;;13.96;100.00;96150.63;1029659;28;20027;-69
2022/08/29 00:39:52;;;;;;;40.67;23.95;;;;;;;13.98;100.00;96159.03;1030719;28;20042;-69
2022/08/29 00:40:29;;;;;;;40.47;23.98;;;;;;;13.99;100.00;96152.72;1022660;28;20117;-68
2022/08/29 00:40:59;;;;;;;37.17;22.92;;;;;;;13.91;100.00;96146.16;1026617;28;20044;-69
2022/08/29 00:41:30;;;;;;;39.20;22.90;;;;;;;13.99;100.00;96161.41;1030653;28;20640;-68
2022/08/29 00:42:00;;;;;;;35.97;21.80;;;;;;;14.01;100.00;96159.28;1022700;29;20039;-68
2022/08/29 00:42:31;;;;;;;36.05;21.92;;;;;;;14.01;100.00;96154.00;1026427;28;20033;-69
2022/08/29 00:43:01;;;;;;;33.08;20.33;;;;;;;14.01;100.00;96166.41;1030798;28;20026;-69
2022/08/29 00:43:33;;;;;;;32.08;20.35;;;;;;;14.00;100.00;96156.91;1034885;28;20024;-68
2022/08/29 00:44:04;;;;;;;30.17;20.75;;;;;;;14.02;100.00;96154.81;1038557;28;20802;-69
2022/08/29 00:44:34;;;;;;;30.67;21.35;;;;;;;14.01;100.00;96158.50;1037731;28;20026;-69
2022/08/29 00:45:06;;;;;;;32.38;20.98;;;;;;;14.01;100.00;96158.50;1035050;28;20680;-68
2022/08/29 00:45:38;;;;;;;40.42;20.67;;;;;;;14.04;100.00;96157.94;1039205;28;20560;-68
2022/08/29 00:46:27;;;;;;;37.42;22.30;;;;;;;14.05;100.00;96162.16;1026474;28;20022;-68
2022/08/29 00:46:59;;;;;;;40.50;21.13;;;;;;;14.05;100.00;96160.31;1029437;28;20029;-68
2022/08/29 00:47:35;;;;;;;36.75;22.30;;;;;;;14.04;100.00;96153.44;1026749;28;20025;-68
2022/08/29 00:48:09;;;;;;;39.53;22.33;;;;;;;14.04;100.00;96157.94;1026590;28;20070;-70
2022/08/29 00:48:39;;;;;;;33.15;21.52;;;;;;;14.06;100.00;96161.88;1026507;28;20519;-67
2022/08/29 00:49:18;;;;;;;38.75;23.10;;;;;;;14.05;100.00;96159.50;1026056;28;20038;-69
2022/08/29 00:49:50;;;;;;;37.92;22.30;;;;;;;14.04;100.00;96155.31;1030332;28;20018;-68
2022/08/29 00:50:31;;;;;;;38.55;22.48;;;;;;;14.04;100.00;96158.72;1032230;28;20022;-69
2022/08/29 00:51:04;;;;;;;44.90;23.35;;;;;;;14.03;100.00;96153.72;1034407;28;20613;-68
2022/08/29 00:51:35;;;;;;;33.55;22.40;;;;;;;13.96;100.00;96147.97;1030637;28;20052;-69
2022/08/29 00:52:30;;;;;;;37.17;22.05;;;;;;;13.99;100.00;96163.25;1026456;28;20769;-69
2022/08/29 00:53:01;;;;;;;34.13;21.23;;;;;;;13.92;100.00;96145.09;1030261;28;20073;-70
2022/08/29 00:53:44;;;;;;;32.45;20.65;;;;;;;13.91;100.00;96152.19;1030665;28;20065;-70
2022/08/29 00:54:17;;;;;;;30.80;21.00;;;;;;;13.91;100.00;96146.94;1026680;28;20563;-69
2022/08/29 00:54:49;;;;;;;32.00;22.20;;;;;;;13.95;100.00;96154.28;1022344;29;20030;-68
2022/08/29 00:55:24;;;;;;;29.55;19.67;;;;;;;13.91;100.00;96146.94;1022661;29;20035;-69
2022/08/29 00:55:54;;;;;;;31.50;20.60;;;;;;;13.83;100.00;96136.97;1030644;28;20018;-68
2022/08/29 00:56:25;;;;;;;30.20;20.73;;;;;;;13.91;100.00;96154.06;1038653;28;20049;-69
2022/08/29 00:56:55;;;;;;;32.28;21.40;;;;;;;13.88;100.00;96149.31;1038014;28;20025;-70
2022/08/29 00:57:28;;;;;;;31.85;21.00;;;;;;;13.87;100.00;96150.41;1030755;28;20713;-68
2022/08/29 00:58:01;;;;;;;35.22;21.25;;;;;;;13.85;100.00;96148.03;1026895;28;20678;-69
2022/08/29 00:58:34;;;;;;;35.22;23.05;;;;;;;13.91;100.00;96154.84;1026743;28;20098;-69
2022/08/29 00:59:10;;;;;;;34.95;22.00;;;;;;;13.90;100.00;96153.28;1026096;28;20021;-69
2022/08/29 00:59:40;;;;;;;40.08;23.20;;;;;;;13.90;100.00;96158.53;1027181;28;20037;-70
2022/08/29 01:00:12;;;;;;;34.88;22.75;;;;;;;13.87;100.00;96153.81;1027392;28;20113;-68
2022/08/29 01:00:45;;;;;;;38.72;24.20;;;;;;;13.86;100.00;96151.47;1027550;28;20545;-68
2022/08/29 01:01:15;;;;;;;40.20;23.65;;;;;;;13.87;100.00;96153.03;1028402;28;20034;-69
2022/08/29 01:01:46;;;;;;;46.90;23.45;;;;;;;13.82;100.00;96145.94;1031983;28;20706;-68
2022/08/29 01:02:17;;;;;;;33.92;22.65;;;;;;;13.86;100.00;96156.75;1035225;28;20056;-70
2022/08/29 01:02:47;;;;;;;37.30;22.90;;;;;;;13.83;100.00;96152.78;1036125;28;20336;-69
2022/08/29 01:03:18;;;;;;;30.48;21.63;;;;;;;13.79;100.00;96148.34;1035192;28;20104;-69
2022/08/29 01:03:48;;;;;;;35.05;22.13;;;;;;;13.84;100.00;96151.72;1031386;28;20133;-68
2022/08/29 01:04:18;;;;;;;33.05;22.25;;;;;;;13.83;100.00;96150.16;1035340;28;20465;-68
2022/08/29 01:04:51;;;;;;;34.90;22.83;;;;;;;13.83;100.00;96158.06;1029376;28;20117;-69
2022/08/29 01:05:21;;;;;;;32.60;22.38;;;;;;;13.85;100.00;96161.22;1027569;28;20037;-68
2022/08/29 01:05:52;;;;;;;31.30;21.45;;;;;;;13.85;100.00;96155.16;1028085;28;20033;-69
2022/08/29 01:06:22;;;;;;;34.45;21.95;;;;;;;13.84;100.00;96154.34;1030602;28;20109;-69
2022/08/29 01:06:53;;;;;;;33.47;22.70;;;;;;;13.81;100.00;96152.25;1032571;28;20062;-69
2022/08/29 01:07:23;;;;;;;39.08;22.67;;;;;;;13.76;100.00;96141.75;1035362;28;20014;-68
2022/08/29 01:07:54;;;;;;;31.98;21.80;;;;;;;13.75;100.00;96139.38;1034530;28;20034;-69
2022/08/29 01:08:24;;;;;;;37.28;22.38;;;;;;;13.81;100.00;96160.19;1027398;28;20065;-69
2022/08/29 01:08:55;;;;;;;36.53;22.52;;;;;;;13.79;100.00;96151.75;1027354;28;20523;-69
2022/08/29 01:09:26;;;;;;;34.42;20.90;;;;;;;13.76;100.00;96154.94;1022473;29;20083;-69
2022/08/29 01:09:56;;;;;;;33.10;22.25;;;;;;;13.78;100.00;96155.47;1031291;28;20093;-69
2022/08/29 01:12:18;;;;;;;36.78;21.83;;;;;;;13.78;100.00;96155.47;1037709;28;20025;-69
2022/08/29 01:12:48;;;;;;;46.92;22.15;;;;;;;13.67;100.00;96140.75;1043645;28;20580;-68
2022/08/29 01:13:21;;;;;;;43.60;22.55;;;;;;;13.70;100.00;96147.31;1027608;28;20074;-68
2022/08/29 01:13:51;;;;;;;38.78;21.23;;;;;;;13.76;100.00;96152.31;1031669;28;20132;-68
2022/08/29 01:14:23;;;;;;;36.67;21.67;;;;;;;13.77;100.00;96158.38;1032857;28;20041;-69
2022/08/29 01:14:55;;;;;;;34.60;20.70;;;;;;;13.68;100.00;96145.75;1033065;28;20697;-69
2022/08/29 01:15:26;;;;;;;38.22;21.67;;;;;;;13.73;100.00;96149.44;1031446;28;20022;-70
2022/08/29 01:15:57;;;;;;;35.47;20.88;;;;;;;13.64;100.00;96147.34;1030098;28;20645;-69
2022/08/29 01:16:28;;;;;;;40.10;20.98;;;;;;;13.63;100.00;96137.88;1023310;28;20032;-69
2022/08/29 01:16:58;;;;;;;52.30;23.23;;;;;;;13.73;100.00;96147.56;1031417;28;20480;-69
2022/08/29 01:17:31;;;;;;;40.08;21.95;;;;;;;13.72;100.00;96147.84;1043636;28;20056;-69
2022/08/29 01:18:02;;;;;;;50.10;22.95;;;;;;;13.73;100.00;96149.44;1035710;28;20026;-69
2022/08/29 01:18:33;;;;;;;38.22;22.10;;;;;;;13.72;100.00;96150.50;1032723;28;20019;-69
2022/08/29 01:19:11;;;;;;;34.08;22.23;;;;;;;13.71;100.00;96144.41;1030832;28;20034;-68
2022/08/29 01:19:46;;;;;;;37.05;20.83;;;;;;;13.67;100.00;96151.28;1019442;29;20040;-69
2022/08/29 01:20:24;;;;;;;32.95;20.17;;;;;;;13.66;100.00;96144.44;1022412;29;20101;-69
2022/08/29 01:21:04;;;;;;;35.28;19.92;;;;;;;13.66;100.00;96152.34;1034196;28;20030;-69
2022/08/29 01:21:48;;;;;;;28.20;19.35;;;;;;;13.59;100.00;96147.38;1035459;28;20029;-70
2022/08/29 01:22:40;;;;;;;34.17;20.73;;;;;;;13.65;100.00;96150.78;1031309;28;20026;-69
2022/08/29 01:23:25;;;;;;;33.25;19.88;;;;;;;13.64;100.00;96154.47;1039118;28;20021;-69
2022/08/29 01:24:14;;;;;;;29.98;19.13;;;;;;;13.60;100.00;96146.31;1033220;28;20515;-68
2022/08/29 01:24:49;;;;;;;35.70;21.90;;;;;;;13.63;100.00;96151.03;1031525;28;20138;-69
2022/08/29 01:25:21;;;;;;;29.88;20.17;;;;;;;13.61;100.00;96149.72;1034128;28;20064;-69
2022/08/29 01:25:52;;;;;;;32.17;20.55;;;;;;;13.61;100.00;96144.47;1038627;28;20104;-69
2022/08/29 01:26:22;;;;;;;33.13;21.00;;;;;;;13.59;100.00;96149.22;1035557;28;20464;-68
2022/08/29 01:26:53;;;;;;;34.00;19.95;;;;;;;13.59;100.00;96142.09;1028982;28;20031;-69
2022/08/29 01:27:29;;;;;;;34.08;20.95;;;;;;;13.62;100.00;96151.34;1028247;28;20042;-69
2022/08/29 01:28:10;;;;;;;31.20;19.73;;;;;;;13.60;100.00;96137.63;1035772;28;20538;-69
2022/08/29 01:28:44;;;;;;;30.80;20.17;;;;;;;13.51;100.00;96129.47;1035424;28;20049;-69
2022/08/29 01:29:14;;;;;;;35.28;20.05;;;;;;;13.58;100.00;96145.00;1029464;28;20026;-69
2022/08/29 01:29:45;;;;;;;43.33;21.58;;;;;;;13.58;100.00;96137.09;1038096;28;20026;-67
2022/08/29 01:30:15;;;;;;;38.47;21.92;;;;;;;13.56;100.00;96134.75;1037801;28;20049;-69
2022/08/29 01:31:08;;;;;;;43.75;20.85;;;;;;;13.58;100.00;96142.38;1038365;28;20053;-68
2022/08/29 01:31:41;;;;;;;38.20;20.73;;;;;;;13.57;100.00;96138.16;1035460;28;20063;-69
2022/08/29 01:32:11;;;;;;;36.40;20.25;;;;;;;13.59;100.00;96143.97;1041009;28;20491;-69
2022/08/29 01:32:42;;;;;;;35.10;21.25;;;;;;;13.56;100.00;96137.38;1046862;28;20155;-69
2022/08/29 01:33:12;;;;;;;35.03;19.88;;;;;;;13.57;100.00;96138.16;1040173;28;20038;-68
2022/08/29 01:33:51;;;;;;;33.63;20.90;;;;;;;13.59;100.00;96142.09;1035743;28;20033;-69
2022/08/29 01:34:22;;;;;;;36.95;20.77;;;;;;;13.52;100.00;96131.06;1027250;28;20026;-67
2022/08/29 01:34:53;;;;;;;31.77;19.58;;;;;;;13.60;100.00;96140.25;1024672;28;20043;-68
2022/08/29 01:35:24;;;;;;;32.05;20.65;;;;;;;13.58;100.00;96135.25;1029676;28;20454;-69
2022/08/29 01:35:54;;;;;;;31.95;19.60;;;;;;;13.59;100.00;96136.84;1028242;28;20035;-70
2022/08/29 01:36:27;;;;;;;38.10;20.15;;;;;;;13.58;100.00;96135.25;1031468;28;20018;-71
2022/08/29 01:36:59;;;;;;;30.58;20.15;;;;;;;13.56;100.00;96134.75;1026621;28;20562;-68
2022/08/29 01:37:30;;;;;;;30.60;19.92;;;;;;;13.58;100.00;96145.81;1023975;28;20110;-69
2022/08/29 01:38:01;;;;;;;28.15;19.23;;;;;;;13.54;100.00;96141.34;1028077;28;20026;-69
2022/08/29 01:38:31;;;;;;;29.52;20.02;;;;;;;13.58;100.00;96145.00;1027817;28;20592;-71
2022/08/29 01:39:02;;;;;;;35.08;21.65;;;;;;;13.59;100.00;96146.59;1031183;28;20030;-69
2022/08/29 01:39:36;;;;;;;33.88;21.55;;;;;;;13.56;100.00;96141.88;1034705;28;20045;-69
2022/08/29 01:40:07;;;;;;;34.30;21.50;;;;;;;13.57;100.00;96143.44;1032591;28;20046;-69
2022/08/29 01:40:37;;;;;;;31.63;20.85;;;;;;;13.56;100.00;96141.88;1035214;28;20577;-70
2022/08/29 01:41:09;;;;;;;34.05;20.73;;;;;;;13.54;100.00;96147.41;1038716;28;20112;-69
2022/08/29 01:41:41;;;;;;;30.77;19.85;;;;;;;13.54;100.00;96143.97;1035982;28;20133;-68
2022/08/29 01:42:19;;;;;;;30.92;19.35;;;;;;;13.48;100.00;96139.78;1036583;28;20030;-69
2022/08/29 01:42:50;;;;;;;32.05;20.17;;;;;;;13.54;100.00;96143.97;1031221;28;20018;-68
2022/08/29 01:43:21;;;;;;;30.38;20.38;;;;;;;13.54;100.00;96141.34;1038201;28;20034;-68
2022/08/29 01:43:54;;;;;;;33.83;21.23;;;;;;;13.52;100.00;96140.84;1039380;28;20046;-68
2022/08/29 01:44:25;;;;;;;32.15;20.90;;;;;;;13.52;100.00;96140.84;1030426;28;20034;-68
2022/08/29 01:44:57;;;;;;;34.72;21.58;;;;;;;13.57;100.00;96135.53;1027113;28;20023;-69
2022/08/29 01:45:27;;;;;;;35.50;23.13;;;;;;;13.53;100.00;96131.84;1027902;28;20452;-68
2022/08/29 01:45:58;;;;;;;32.03;22.08;;;;;;;13.60;100.00;96132.34;1027968;28;20031;-68
2022/08/29 01:46:30;;;;;;;41.25;22.73;;;;;;;13.55;100.00;96135.81;1031520;28;20031;-68
2022/08/29 01:47:01;;;;;;;37.67;22.17;;;;;;;13.56;100.00;96139.22;1027516;28;20047;-69
2022/08/29 01:47:33;;;;;;;35.75;21.48;;;;;;;13.54;100.00;96131.56;1031253;28;20026;-70
2022/08/29 01:48:04;;;;;;;35.90;22.48;;;;;;;13.59;100.00;96133.41;1031730;28;20120;-69
2022/08/29 01:48:36;;;;;;;40.10;24.30;;;;;;;13.61;100.00;96132.06;1036096;28;20057;-69
2022/08/29 01:49:08;;;;;;;41.70;24.25;;;;;;;13.60;100.00;96119.94;1042764;28;20028;-69
2022/08/29 01:49:38;;;;;;;47.38;26.38;;;;;;;13.67;100.00;96127.56;1035096;28;20024;-69
2022/08/29 01:50:11;;;;;;;43.95;25.58;;;;;;;13.75;100.00;96131.47;1031215;28;20041;-69
2022/08/29 01:50:45;;;;;;;44.22;25.08;;;;;;;13.73;100.00;96126.47;1031294;28;20110;-69
2022/08/29 01:51:16;;;;;;;41.25;23.45;;;;;;;13.72;100.00;96134.66;1033341;28;20506;-70
2022/08/29 01:51:47;;;;;;;39.45;23.30;;;;;;;13.70;100.00;96132.28;1036383;28;20030;-69
2022/08/29 01:52:18;;;;;;;43.22;23.83;;;;;;;13.65;100.00;96130.47;1027715;28;20077;-69
2022/08/29 01:52:48;;;;;;;39.85;23.73;;;;;;;13.70;100.00;96132.28;1023683;28;20070;-69
2022/08/29 01:53:19;;;;;;;40.75;24.42;;;;;;;13.70;100.00;96132.28;1027124;28;20489;-69
2022/08/29 01:53:50;;;;;;;41.92;24.48;;;;;;;13.40;100.00;96083.94;1027308;28;20077;-68
2022/08/29 01:54:21;;;;;;;43.92;25.45;;;;;;;13.75;100.00;96127.00;1031674;28;20484;-70
2022/08/29 01:54:51;;;;;;;42.25;26.50;;;;;;;13.70;100.00;96128.88;1035230;28;20108;-69
2022/08/29 01:55:22;;;;;;;41.30;23.83;;;;;;;13.68;100.00;96129.13;1027302;28;20030;-68
2022/08/29 01:55:52;;;;;;;44.47;25.08;;;;;;;13.72;100.00;96134.66;1023729;28;20027;-69
2022/08/29 01:56:24;;;;;;;54.25;24.67;;;;;;;13.64;100.00;96128.09;1028789;28;20031;-71
2022/08/29 01:56:55;;;;;;;47.25;26.05;;;;;;;13.73;100.00;96142.28;1032977;28;20022;-68
2022/08/29 01:57:25;;;;;;;42.17;25.42;;;;;;;13.74;100.00;96141.22;1039858;28;20083;-68
2022/08/29 01:57:56;;;;;;;50.13;26.98;;;;;;;13.71;100.00;96133.06;1047052;28;20059;-71
2022/08/29 01:58:26;;;;;;;50.40;25.77;;;;;;;13.69;100.00;96133.34;1043509;28;20422;-68
2022/08/29 01:58:57;;;;;;;47.92;26.15;;;;;;;13.67;100.00;96128.34;1047805;28;20059;-70
2022/08/29 01:59:28;;;;;;;49.28;26.40;;;;;;;13.71;100.00;96128.59;1038563;28;20021;-71
2022/08/29 01:59:59;;;;;;;49.28;25.38;;;;;;;13.69;100.00;96122.81;1023406;29;20022;-70
2022/08/29 02:00:30;;;;;;;47.38;26.08;;;;;;;13.76;100.00;96136.47;1027461;28;20102;-70
2022/08/29 02:01:00;;;;;;;56.13;26.75;;;;;;;13.75;100.00;96128.81;1027520;28;20118;-69
2022/08/29 02:01:37;;;;;;;46.95;25.60;;;;;;;13.73;100.00;96121.19;1023536;28;20034;-69
2022/08/29 02:02:14;;;;;;;46.42;25.08;;;;;;;13.80;100.00;96132.22;1032195;28;20014;-70
2022/08/29 02:02:45;;;;;;;51.50;26.27;;;;;;;13.78;100.00;96123.81;1032983;28;20025;-69
2022/08/29 02:03:16;;;;;;;42.20;25.30;;;;;;;13.81;100.00;96133.00;1032856;28;20449;-67
2022/08/29 02:03:47;;;;;;;39.13;23.25;;;;;;;13.79;100.00;96130.66;1028169;28;20019;-69
2022/08/29 02:04:18;;;;;;;41.85;24.88;;;;;;;13.78;100.00;96133.56;1023743;28;20019;-68
2022/08/29 02:04:48;;;;;;;40.40;24.02;;;;;;;13.80;100.00;96136.72;1023387;28;20027;-69
2022/08/29 02:05:21;;;;;;;42.17;24.95;;;;;;;13.79;100.00;96135.94;1031372;28;20100;-69
2022/08/29 02:05:52;;;;;;;47.10;25.92;;;;;;;13.78;100.00;96129.09;1035131;28;20621;-69
2022/08/29 02:06:22;;;;;;;42.65;24.13;;;;;;;13.73;100.00;96126.47;1032517;28;20023;-71
2022/08/29 02:06:54;;;;;;;43.72;25.60;;;;;;;13.80;100.00;96131.44;1035934;28;20018;-70
2022/08/29 02:07:25;;;;;;;50.40;26.02;;;;;;;13.81;100.00;96123.25;1035404;28;20065;-68
2022/08/29 02:07:56;;;;;;;41.13;25.13;;;;;;;13.82;100.00;96135.41;1031160;28;20053;-70
2022/08/29 02:08:27;;;;;;;39.83;23.60;;;;;;;13.81;100.00;96130.38;1031528;28;20010;-69
2022/08/29 02:08:57;;;;;;;39.70;24.20;;;;;;;13.83;100.00;96130.91;1027367;28;20115;-69
2022/08/29 02:09:28;;;;;;;41.60;25.17;;;;;;;13.81;100.00;96131.16;1022564;29;20564;-69
2022/08/29 02:09:59;;;;;;;35.75;22.63;;;;;;;13.81;100.00;96127.75;1025249;28;20026;-70
2022/08/29 02:10:29;;;;;;;40.97;23.50;;;;;;;13.75;100.00;96121.72;1031024;28;20035;-70
2022/08/29 02:11:00;;;;;;;49.80;24.98;;;;;;;13.78;100.00;96129.09;1026373;28;20023;-69
2022/08/29 02:11:31;;;;;;;39.50;23.80;;;;;;;13.77;100.00;96132.00;1026793;28;20014;-70
2022/08/29 02:12:05;;;;;;;43.78;22.30;;;;;;;13.74;100.00;96137.81;1031068;28;20469;-69
2022/08/29 02:12:36;;;;;;;37.75;21.27;;;;;;;13.72;100.00;96134.66;1031777;28;20400;-69
2022/08/29 02:13:06;;;;;;;40.28;21.00;;;;;;;13.72;100.00;96127.53;1031016;28;20022;-68
2022/08/29 02:13:38;;;;;;;36.85;21.63;;;;;;;13.74;100.00;96137.81;1031238;28;20400;-69
2022/08/29 02:14:09;;;;;;;36.70;22.00;;;;;;;13.76;100.00;96130.41;1031302;28;20018;-69
2022/08/29 02:14:39;;;;;;;47.40;22.73;;;;;;;13.73;100.00;96131.75;1032017;28;20073;-70
2022/08/29 02:15:10;;;;;;;35.78;20.80;;;;;;;13.69;100.00;96125.44;1035465;28;20014;-69
2022/08/29 02:15:40;;;;;;;37.60;21.48;;;;;;;13.62;100.00;96119.69;1027218;28;20095;-69
2022/08/29 02:16:11;;;;;;;42.97;22.27;;;;;;;13.61;100.00;96123.38;1023165;29;20035;-70
2022/08/29 02:16:42;;;;;;;35.25;20.67;;;;;;;13.64;100.00;96128.09;1031134;28;20448;-69
2022/08/29 02:17:12;;;;;;;37.42;21.23;;;;;;;13.62;100.00;96135.50;1031389;28;20022;-68
2022/08/29 02:17:43;;;;;;;38.95;20.13;;;;;;;13.60;100.00;96127.06;1031444;28;20045;-69
2022/08/29 02:18:13;;;;;;;34.78;21.15;;;;;;;13.59;100.00;96128.13;1035306;28;20018;-70
2022/08/29 02:18:44;;;;;;;28.85;19.10;;;;;;;13.56;100.00;96129.47;1035411;28;20053;-69
2022/08/29 02:19:15;;;;;;;35.33;19.95;;;;;;;13.52;100.00;96130.28;1030574;28;20014;-69
2022/08/29 02:19:45;;;;;;;34.50;19.13;;;;;;;13.52;100.00;96128.44;1023097;29;20039;-69
2022/08/29 02:20:16;;;;;;;28.23;19.15;;;;;;;13.49;100.00;96128.19;1029077;28;20383;-70
2022/08/29 02:20:46;;;;;;;28.80;18.55;;;;;;;13.48;100.00;96124.78;1027313;28;20034;-70
2022/08/29 02:21:19;;;;;;;41.63;19.90;;;;;;;13.43;100.00;96117.66;1027505;28;20070;-70
2022/08/29 02:21:50;;;;;;;29.80;18.83;;;;;;;13.47;100.00;96123.19;1033085;28;20019;-69
2022/08/29 02:22:20;;;;;;;31.08;17.98;;;;;;;13.46;100.00;96132.16;1031882;28;20034;-70
2022/08/29 02:22:51;;;;;;;38.28;18.90;;;;;;;13.46;100.00;96124.25;1035381;28;20029;-69
2022/08/29 02:23:21;;;;;;;30.33;18.20;;;;;;;13.45;100.00;96133.22;1031041;28;20054;-69
2022/08/29 02:23:54;;;;;;;33.08;19.33;;;;;;;13.38;100.00;96125.59;1035332;28;20084;-69
2022/08/29 02:24:24;;;;;;;32.55;17.95;;;;;;;13.35;100.00;96120.09;1031265;28;20250;-69
2022/08/29 02:24:55;;;;;;;35.65;18.55;;;;;;;13.41;100.00;96127.69;1031078;28;20026;-68
2022/08/29 02:25:41;;;;;;;35.05;19.73;;;;;;;13.40;100.00;96139.28;1027315;28;20098;-72
2022/08/29 02:26:11;;;;;;;36.00;18.77;;;;;;;13.38;100.00;96133.50;1029202;28;20659;-69
2022/08/29 02:26:42;;;;;;;38.72;19.35;;;;;;;13.38;100.00;96130.88;1023215;28;20070;-66
2022/08/29 02:27:13;;;;;;;36.25;18.70;;;;;;;13.37;100.00;96133.75;1027174;28;20109;-68